Terminal Aerodrome Forecast
Issued by NWS Twin Cities, MN

Home | Current Version | Previous Version | Text Only | Print | Product List | Glossary Off
Versions: 1 2 3 4 5 6 7 8 9 10 11 12 13 14 15 16

000
FTUS43 KMPX 281139
TAFSTC
TAF
KSTC 281139Z 2812/2912 13012KT P6SM -SHRA VCTS OVC035CB
     FM281300 16014G22KT P6SM VCSH SCT007 OVC018
     FM281700 19012G18KT P6SM BKN024
     FM282000 27015G23KT P6SM VCTS BKN040CB
     FM282300 29013G21KT P6SM BKN050
     FM290300 27006KT P6SM SKC=

USA.gov is the U.S. government's official web portal to all federal, state and local government web resources and services.